Terminal Aerodrome Forecast
Issued by NWS

Home | Current Version | Previous Version | Text Only | Print | Product List | Glossary On
Versions: 1 2 3 4 5 6 7 8 9 10 11 12 13 14 15 16 17 18 19 20 21 22 23 24 25 26 27 28
434
FTAK31 PAFA 292352
TAFAOR
TAF
PAOR 292352Z 3000/3024 20008KT P6SM VCSH SCT050 BKN070 BKN200
     FM300900 VRB03KT P6SM VCFG SCT060
     FM301800 11007KT P6SM SCT100 BKN200=

USA.gov is the U.S. government's official web portal to all federal, state and local government web resources and services.